createdAt,value
2023-03-01T00:01:46.117Z,6.08
2023-03-01T00:04:13.949Z,6.11
2023-03-01T00:06:44.032Z,6.12
2023-03-01T00:09:12.663Z,6.11
2023-03-01T00:11:40.538Z,6.13
2023-03-01T00:14:08.875Z,6.16
2023-03-01T00:16:43.801Z,6.18
2023-03-01T00:19:15.504Z,6.18
2023-03-01T00:21:43.514Z,5.98
2023-03-01T00:24:11.421Z,6.05
2023-03-01T00:26:39.424Z,6.10
2023-03-01T00:29:07.576Z,6.14
2023-03-01T00:31:36.197Z,6.15
2023-03-01T00:34:06.547Z,6.10
2023-03-01T00:36:37.706Z,6.14
2023-03-01T00:39:11.873Z,6.13
2023-03-01T00:41:41.069Z,6.11
2023-03-01T00:44:10.764Z,6.13
2023-03-01T00:46:39.047Z,6.11
2023-03-01T00:49:06.940Z,6.10
2023-03-01T00:51:34.762Z,6.03
2023-03-01T00:54:04.295Z,6.06
2023-03-01T00:56:33.275Z,6.03
2023-03-01T00:59:02.166Z,6.00
2023-03-01T01:01:31.852Z,6.01
2023-03-01T01:04:14.282Z,6.00
2023-03-01T01:06:46.052Z,5.97
2023-03-01T01:09:20.501Z,5.96
2023-03-01T01:11:52.097Z,5.94
2023-03-01T01:14:21.078Z,5.93
2023-03-01T01:16:50.104Z,5.90
2023-03-01T01:19:18.606Z,5.89
2023-03-01T01:21:46.453Z,5.89
2023-03-01T01:24:14.505Z,5.87
2023-03-01T01:26:43.723Z,5.87
2023-03-01T01:29:12.439Z,5.81
2023-03-01T01:31:42.892Z,5.86
2023-03-01T01:34:17.661Z,5.85
2023-03-01T01:36:50.703Z,5.85
2023-03-01T01:39:19.177Z,5.82
2023-03-01T01:41:47.736Z,5.82
2023-03-01T01:44:27.441Z,5.80
2023-03-01T01:47:19.747Z,5.79
2023-03-01T01:49:54.659Z,5.73
2023-03-01T01:52:32.526Z,5.70
2023-03-01T01:55:15.900Z,5.67
2023-03-01T01:57:48.669Z,5.65
2023-03-01T02:00:24.909Z,5.62
2023-03-01T02:03:18.916Z,5.59
2023-03-01T02:06:01.690Z,5.54
2023-03-01T02:08:34.276Z,5.47
2023-03-01T02:11:05.184Z,5.42
2023-03-01T02:13:34.941Z,5.37
2023-03-01T02:16:11.240Z,5.37
2023-03-01T02:18:41.296Z,5.31
2023-03-01T02:21:47.763Z,5.30
2023-03-01T02:24:21.569Z,5.27
2023-03-01T02:26:56.072Z,5.22
2023-03-01T02:29:25.355Z,5.23
2023-03-01T02:31:57.463Z,5.23
2023-03-01T02:34:30.044Z,5.24
2023-03-01T02:37:08.739Z,5.26
2023-03-01T02:39:59.405Z,5.25
2023-03-01T02:42:41.408Z,5.25
2023-03-01T02:45:11.230Z,5.27
2023-03-01T02:47:38.952Z,5.29
2023-03-01T02:50:31.834Z,5.30
2023-03-01T02:53:11.979Z,5.32
2023-03-01T02:55:40.196Z,5.31
2023-03-01T02:58:09.777Z,5.35
2023-03-01T03:00:58.467Z,5.35
2023-03-01T03:03:27.793Z,5.43
2023-03-01T03:05:55.613Z,5.43
2023-03-01T03:08:25.246Z,5.43
2023-03-01T03:10:54.044Z,5.48
2023-03-01T03:13:23.032Z,5.48
2023-03-01T03:15:51.166Z,5.47
2023-03-01T03:18:19.996Z,5.46
2023-03-01T03:20:48.525Z,5.49
2023-03-01T03:23:17.369Z,5.50
2023-03-01T03:25:45.410Z,5.48
2023-03-01T03:28:13.224Z,5.48
2023-03-01T03:30:43.383Z,5.48
2023-03-01T03:33:13.915Z,5.46
2023-03-01T03:35:46.896Z,5.40
2023-03-01T03:38:17.813Z,5.40
2023-03-01T03:40:48.303Z,5.35
2023-03-01T03:43:23.085Z,5.33
2023-03-01T03:45:52.149Z,5.27
2023-03-01T03:48:20.337Z,5.25
2023-03-01T03:50:54.641Z,5.25
2023-03-01T03:53:25.567Z,5.24
2023-03-01T03:55:54.052Z,5.21
2023-03-01T03:58:24.595Z,5.25
2023-03-01T04:00:57.146Z,5.25
2023-03-01T04:03:27.092Z,5.29
2023-03-01T04:05:57.617Z,5.27
2023-03-01T04:08:25.938Z,5.29
2023-03-01T04:11:23.209Z,5.29
2023-03-01T04:13:53.869Z,5.22
2023-03-01T04:16:21.845Z,5.13
2023-03-01T04:18:50.177Z,5.12
2023-03-01T04:21:18.062Z,5.06
2023-03-01T04:23:46.357Z,5.01
2023-03-01T04:26:14.215Z,4.94
2023-03-01T04:28:47.113Z,4.91
2023-03-01T04:31:19.323Z,4.89
2023-03-01T04:33:54.974Z,4.88
2023-03-01T04:36:27.201Z,4.85
2023-03-01T04:38:56.544Z,4.75
2023-03-01T04:41:26.146Z,4.79
2023-03-01T04:43:53.982Z,4.79
2023-03-01T04:46:22.866Z,4.81
2023-03-01T04:48:51.037Z,4.81
2023-03-01T04:51:19.559Z,4.84
2023-03-01T04:53:47.887Z,4.82
2023-03-01T04:56:16.404Z,4.87
2023-03-01T04:58:45.273Z,4.88
2023-03-01T05:01:20.342Z,4.96
2023-03-01T05:03:51.942Z,4.96
2023-03-01T05:06:21.790Z,4.94
2023-03-01T05:08:50.056Z,4.94
2023-03-01T05:11:17.849Z,4.94
2023-03-01T05:13:45.743Z,4.94
2023-03-01T05:16:13.756Z,4.90
2023-03-01T05:18:42.068Z,4.90
2023-03-01T05:21:17.083Z,4.92
2023-03-01T05:23:46.411Z,4.89
2023-03-01T05:26:33.555Z,4.89
2023-03-01T05:29:01.981Z,4.81
2023-03-01T05:31:31.656Z,4.77
2023-03-01T05:33:59.678Z,4.79
2023-03-01T05:36:27.403Z,4.76
2023-03-01T05:38:55.108Z,4.75
2023-03-01T05:41:26.141Z,4.80
2023-03-01T05:43:54.150Z,4.76
2023-03-01T05:46:24.452Z,4.81
2023-03-01T05:48:52.124Z,4.74
2023-03-01T05:51:19.950Z,4.74
2023-03-01T05:53:47.738Z,4.77
2023-03-01T05:56:15.533Z,4.80
2023-03-01T05:58:43.228Z,4.81
2023-03-01T06:01:14.593Z,4.83
2023-03-01T06:03:42.787Z,4.83
2023-03-01T06:06:10.519Z,4.83
2023-03-01T06:08:38.278Z,4.79
2023-03-01T06:11:08.602Z,4.75
2023-03-01T06:13:36.933Z,4.74
2023-03-01T06:16:08.615Z,4.68
2023-03-01T06:18:37.706Z,4.60
2023-03-01T06:21:07.831Z,4.55
2023-03-01T06:23:36.287Z,4.49
2023-03-01T06:26:09.280Z,4.43
2023-03-01T06:28:38.698Z,4.44
2023-03-01T06:31:09.656Z,4.37
2023-03-01T06:33:38.332Z,4.37
2023-03-01T06:36:06.876Z,4.38
2023-03-01T06:38:34.936Z,4.38
2023-03-01T06:41:04.893Z,4.38
2023-03-01T06:43:32.689Z,4.42
2023-03-01T06:46:00.519Z,4.43
2023-03-01T06:48:28.675Z,4.49
2023-03-01T06:51:01.667Z,4.58
2023-03-01T06:53:30.527Z,4.61
2023-03-01T06:56:00.961Z,4.67
2023-03-01T06:58:28.760Z,4.69
2023-03-01T07:00:56.468Z,4.72
2023-03-01T07:03:27.259Z,4.82
2023-03-01T07:05:57.105Z,4.89
2023-03-01T07:08:24.861Z,4.94
2023-03-01T07:11:01.616Z,5.01
2023-03-01T07:13:29.411Z,5.03
2023-03-01T07:15:57.266Z,5.08
2023-03-01T07:18:25.304Z,5.16
2023-03-01T07:20:54.363Z,5.20
2023-03-01T07:23:22.140Z,5.24
2023-03-01T07:25:56.316Z,5.30
2023-03-01T07:28:25.997Z,5.26
2023-03-01T07:30:54.394Z,5.30
2023-03-01T07:33:22.735Z,5.32
2023-03-01T07:36:01.472Z,5.35
2023-03-01T07:38:33.864Z,5.33
2023-03-01T07:41:05.054Z,5.38
2023-03-01T07:43:35.805Z,5.39
2023-03-01T07:46:03.947Z,5.38
2023-03-01T07:48:32.655Z,5.52
2023-03-01T07:51:02.916Z,5.59
2023-03-01T07:53:34.991Z,5.61
2023-03-01T07:56:12.327Z,5.67
2023-03-01T07:58:43.212Z,5.72
2023-03-01T08:01:15.646Z,5.78
2023-03-01T08:03:49.583Z,5.81
2023-03-01T08:06:19.039Z,5.86
2023-03-01T08:08:47.283Z,5.88
2023-03-01T08:11:16.499Z,5.91
2023-03-01T08:13:44.980Z,5.90
2023-03-01T08:16:15.907Z,5.94
2023-03-01T08:18:44.978Z,5.99
2023-03-01T08:21:18.120Z,6.04
2023-03-01T08:23:46.701Z,6.09
2023-03-01T08:26:19.466Z,6.19
2023-03-01T08:28:50.925Z,6.25
2023-03-01T08:31:28.349Z,6.29
2023-03-01T08:34:01.587Z,6.39
2023-03-01T08:36:38.966Z,6.52
2023-03-01T08:39:12.208Z,6.54
2023-03-01T08:41:40.813Z,6.55
2023-03-01T08:44:16.264Z,6.59
2023-03-01T08:46:45.661Z,6.73
2023-03-01T08:49:17.913Z,6.81
2023-03-01T08:51:48.462Z,6.84
2023-03-01T08:54:21.413Z,6.89
2023-03-01T08:56:49.915Z,6.90
2023-03-01T08:59:38.292Z,6.98
2023-03-01T09:02:27.672Z,7.03
2023-03-01T09:04:57.716Z,7.10
2023-03-01T09:07:32.195Z,7.17
2023-03-01T09:10:02.434Z,7.22
2023-03-01T09:12:30.362Z,7.30
2023-03-01T09:14:58.303Z,7.32
2023-03-01T09:17:25.978Z,7.42
2023-03-01T09:19:54.296Z,7.46
2023-03-01T09:22:22.188Z,7.51
2023-03-01T09:24:50.076Z,7.56
2023-03-01T09:27:19.800Z,7.59
2023-03-01T09:29:47.926Z,7.63
2023-03-01T09:32:15.609Z,7.66
2023-03-01T09:35:02.133Z,7.72
2023-03-01T09:37:30.720Z,7.78
2023-03-01T09:40:02.201Z,7.83
2023-03-01T09:42:35.524Z,7.93
2023-03-01T09:45:17.246Z,8.02
2023-03-01T09:47:49.599Z,8.01
2023-03-01T09:50:22.078Z,7.99
2023-03-01T09:53:14.302Z,8.07
2023-03-01T09:56:11.980Z,8.15
2023-03-01T09:58:48.852Z,8.22
2023-03-01T10:01:53.348Z,8.25
2023-03-01T10:04:37.515Z,8.33
2023-03-01T10:07:42.989Z,8.34
2023-03-01T10:10:32.666Z,8.42
2023-03-01T10:13:11.915Z,8.44
2023-03-01T10:15:57.001Z,8.38
2023-03-01T10:18:32.559Z,8.49
2023-03-01T10:21:04.091Z,8.59
2023-03-01T10:23:35.480Z,8.64
2023-03-01T10:26:21.690Z,8.76
2023-03-01T10:29:09.053Z,8.80
2023-03-01T10:31:53.857Z,8.87
2023-03-01T10:34:32.655Z,8.90
2023-03-01T10:37:20.293Z,8.98
2023-03-01T10:40:10.741Z,9.05
2023-03-01T10:42:50.359Z,9.11
2023-03-01T10:45:37.118Z,9.16
2023-03-01T10:48:09.560Z,9.24
2023-03-01T10:50:40.331Z,9.30
2023-03-01T10:53:27.380Z,9.40
2023-03-01T10:56:08.466Z,9.44
2023-03-01T10:58:42.374Z,9.45
2023-03-01T11:01:18.487Z,9.50
2023-03-01T11:03:46.266Z,9.48
2023-03-01T11:06:13.784Z,9.54
2023-03-01T11:08:50.268Z,9.63
2023-03-01T11:11:35.694Z,9.71
2023-03-01T11:14:27.505Z,9.74
2023-03-01T11:17:06.539Z,9.75
2023-03-01T11:19:34.700Z,9.76
2023-03-01T11:22:23.539Z,9.86
2023-03-01T11:25:08.844Z,9.88
2023-03-01T11:27:46.693Z,9.92
2023-03-01T11:30:46.560Z,9.99
2023-03-01T11:33:39.432Z,10.03
2023-03-01T11:36:49.540Z,10.06
2023-03-01T11:39:56.583Z,10.13
2023-03-01T11:42:49.294Z,10.17
2023-03-01T11:45:17.336Z,10.22
2023-03-01T11:47:53.963Z,10.31
2023-03-01T11:50:39.848Z,10.35
2023-03-01T11:53:31.677Z,10.39
2023-03-01T11:56:56.639Z,10.38
2023-03-01T11:59:56.088Z,10.38
2023-03-01T12:02:38.863Z,10.42
2023-03-01T12:05:19.487Z,10.45
2023-03-01T12:08:17.285Z,10.49
2023-03-01T12:11:16.728Z,10.51
2023-03-01T12:13:50.034Z,10.62
2023-03-01T12:16:57.598Z,10.67
2023-03-01T12:19:28.453Z,10.68
2023-03-01T12:22:15.079Z,10.74
2023-03-01T12:25:23.030Z,10.80
2023-03-01T12:28:19.476Z,10.63
2023-03-01T12:31:32.972Z,10.77
2023-03-01T12:34:37.566Z,10.82
2023-03-01T12:37:31.802Z,10.91
2023-03-01T12:40:34.708Z,10.96
2023-03-01T12:43:18.310Z,10.99
2023-03-01T12:46:22.359Z,11.02
2023-03-01T12:49:26.547Z,11.08
2023-03-01T12:52:26.930Z,11.08
2023-03-01T12:54:59.438Z,11.11
2023-03-01T12:57:41.362Z,11.21
2023-03-01T13:00:33.678Z,11.32
2023-03-01T13:03:29.987Z,11.36
2023-03-01T13:06:24.214Z,11.35
2023-03-01T13:09:40.955Z,11.35
2023-03-01T13:12:47.542Z,11.39
2023-03-01T13:15:25.065Z,11.43
2023-03-01T13:18:16.420Z,11.45
2023-03-01T13:20:50.670Z,11.39
2023-03-01T13:23:21.497Z,11.44
2023-03-01T13:26:01.343Z,11.48
2023-03-01T13:28:35.492Z,11.49
2023-03-01T13:31:06.465Z,11.46
2023-03-01T13:33:42.682Z,11.51
2023-03-01T13:36:14.354Z,11.57
2023-03-01T13:38:56.330Z,11.64
2023-03-01T13:41:42.468Z,11.66
2023-03-01T13:44:27.891Z,11.66
2023-03-01T13:47:20.247Z,11.68
2023-03-01T13:49:58.295Z,11.68
2023-03-01T13:52:46.225Z,11.75
2023-03-01T13:55:15.296Z,11.74
2023-03-01T13:58:00.174Z,11.80
2023-03-01T14:00:34.401Z,11.82
2023-03-01T14:03:06.347Z,11.77
2023-03-01T14:05:36.911Z,11.82
2023-03-01T14:08:09.071Z,11.84
2023-03-01T14:11:25.280Z,11.94
2023-03-01T14:14:30.464Z,11.97
2023-03-01T14:17:10.124Z,11.98
2023-03-01T14:19:38.123Z,11.99
2023-03-01T14:22:29.396Z,12.04
2023-03-01T14:25:06.602Z,12.09
2023-03-01T14:27:43.459Z,12.12
2023-03-01T14:30:36.080Z,12.15
2023-03-01T14:33:19.342Z,12.13
2023-03-01T14:36:04.855Z,12.17
2023-03-01T14:38:37.791Z,12.19
2023-03-01T14:41:19.673Z,12.22
2023-03-01T14:43:51.731Z,12.26
2023-03-01T14:46:41.652Z,12.33
2023-03-01T14:49:20.656Z,12.29
2023-03-01T14:51:54.835Z,12.31
2023-03-01T14:54:45.853Z,12.34
2023-03-01T14:57:19.551Z,12.34
2023-03-01T15:00:08.938Z,12.35
2023-03-01T15:03:01.468Z,12.37
2023-03-01T15:05:34.686Z,12.42
2023-03-01T15:08:04.699Z,12.42
2023-03-01T15:10:36.753Z,12.44
2023-03-01T15:13:25.159Z,12.49
2023-03-01T15:16:03.735Z,12.48
2023-03-01T15:18:32.088Z,12.45
2023-03-01T15:21:23.937Z,12.43
2023-03-01T15:23:56.425Z,12.45
2023-03-01T15:26:30.616Z,12.45
2023-03-01T15:29:02.083Z,12.42
2023-03-01T15:31:39.402Z,12.40
2023-03-01T15:34:21.383Z,12.46
2023-03-01T15:36:50.984Z,12.42
2023-03-01T15:39:53.563Z,12.42
2023-03-01T15:42:29.399Z,12.41
2023-03-01T15:45:19.258Z,12.42
2023-03-01T15:47:58.896Z,12.39
2023-03-01T15:50:31.549Z,12.37
2023-03-01T15:53:02.627Z,12.36
2023-03-01T15:55:34.194Z,12.37
2023-03-01T15:58:26.049Z,12.36
2023-03-01T16:01:01.093Z,12.30
2023-03-01T16:03:31.261Z,12.31
2023-03-01T16:05:59.027Z,12.28
2023-03-01T16:08:26.988Z,12.32
2023-03-01T16:10:55.522Z,12.29
2023-03-01T16:13:23.545Z,12.26
2023-03-01T16:15:52.767Z,12.25
2023-03-01T16:18:22.812Z,12.23
2023-03-01T16:20:50.576Z,12.21
2023-03-01T16:23:18.570Z,12.23
2023-03-01T16:25:46.352Z,12.20
2023-03-01T16:28:15.137Z,12.20
2023-03-01T16:30:49.071Z,12.20
2023-03-01T16:33:28.530Z,12.13
2023-03-01T16:36:15.125Z,12.11
2023-03-01T16:38:43.073Z,12.05
2023-03-01T16:41:17.340Z,12.02
2023-03-01T16:43:47.619Z,11.97
2023-03-01T16:46:23.006Z,11.98
2023-03-01T16:48:51.918Z,11.95
2023-03-01T16:51:23.602Z,11.92
2023-03-01T16:53:51.810Z,11.73
2023-03-01T16:56:20.615Z,11.77
2023-03-01T16:58:48.420Z,11.77
2023-03-01T17:01:25.169Z,11.80
2023-03-01T17:03:53.188Z,11.75
2023-03-01T17:06:23.191Z,11.72
2023-03-01T17:08:51.426Z,11.73
2023-03-01T17:11:21.185Z,11.73
2023-03-01T17:13:49.675Z,11.70
2023-03-01T17:16:20.650Z,11.68
2023-03-01T17:18:49.150Z,11.64
2023-03-01T17:21:20.464Z,11.63
2023-03-01T17:23:50.162Z,11.60
2023-03-01T17:26:18.356Z,11.58
2023-03-01T17:28:51.702Z,11.57
2023-03-01T17:31:21.065Z,11.55
2023-03-01T17:33:50.118Z,11.50
2023-03-01T17:36:19.467Z,11.49
2023-03-01T17:38:47.389Z,11.49
2023-03-01T17:41:17.712Z,11.45
2023-03-01T17:43:46.264Z,11.44
2023-03-01T17:46:14.675Z,11.42
2023-03-01T17:48:42.652Z,11.41
2023-03-01T17:51:12.095Z,11.39
2023-03-01T17:53:39.950Z,11.36
2023-03-01T17:56:09.534Z,11.33
2023-03-01T17:58:39.274Z,11.32
2023-03-01T18:01:12.672Z,11.32
2023-03-01T18:03:42.069Z,11.27
2023-03-01T18:06:25.761Z,11.26
2023-03-01T18:08:56.422Z,11.18
2023-03-01T18:11:27.376Z,11.16
2023-03-01T18:13:56.235Z,11.16
2023-03-01T18:16:24.640Z,11.08
2023-03-01T18:18:57.080Z,11.11
2023-03-01T18:21:25.469Z,11.08
2023-03-01T18:23:53.367Z,11.03
2023-03-01T18:26:22.514Z,11.03
2023-03-01T18:28:54.981Z,11.00
2023-03-01T18:31:23.055Z,10.97
2023-03-01T18:33:57.309Z,10.94
2023-03-01T18:36:32.658Z,10.92
2023-03-01T18:39:05.354Z,10.91
2023-03-01T18:41:36.644Z,10.85
2023-03-01T18:44:05.561Z,10.80
2023-03-01T18:46:36.041Z,10.76
2023-03-01T18:49:06.550Z,10.69
2023-03-01T18:51:35.719Z,10.64
2023-03-01T18:54:04.239Z,10.56
2023-03-01T18:56:34.441Z,10.48
2023-03-01T18:59:04.020Z,10.43
2023-03-01T19:01:36.705Z,10.37
2023-03-01T19:04:05.948Z,10.27
2023-03-01T19:06:35.321Z,10.23
2023-03-01T19:09:09.822Z,10.14
2023-03-01T19:11:38.450Z,10.12
2023-03-01T19:14:08.664Z,10.10
2023-03-01T19:16:36.483Z,10.06
2023-03-01T19:19:09.560Z,10.06
2023-03-01T19:21:37.692Z,10.07
2023-03-01T19:24:06.004Z,10.06
2023-03-01T19:26:34.524Z,10.08
2023-03-01T19:29:03.750Z,10.08
2023-03-01T19:31:33.002Z,10.09
2023-03-01T19:34:11.064Z,10.08
2023-03-01T19:36:42.536Z,10.08
2023-03-01T19:39:13.532Z,10.06
2023-03-01T19:41:43.650Z,10.07
2023-03-01T19:44:12.170Z,10.07
2023-03-01T19:46:40.905Z,10.04
2023-03-01T19:49:10.021Z,10.06
2023-03-01T19:51:39.340Z,10.02
2023-03-01T19:54:07.744Z,10.01
2023-03-01T19:56:35.845Z,10.01
2023-03-01T19:59:04.978Z,9.99
2023-03-01T20:01:35.037Z,9.96
2023-03-01T20:04:04.165Z,9.89
2023-03-01T20:06:32.430Z,9.73
2023-03-01T20:09:15.575Z,9.59
2023-03-01T20:11:48.564Z,9.53
2023-03-01T20:14:17.393Z,9.45
2023-03-01T20:16:45.481Z,9.37
2023-03-01T20:19:13.501Z,9.32
2023-03-01T20:21:44.662Z,9.29
2023-03-01T20:24:12.555Z,9.28
2023-03-01T20:26:41.106Z,9.29
2023-03-01T20:29:10.456Z,9.28
2023-03-01T20:31:39.892Z,9.30
2023-03-01T20:34:08.108Z,9.32
2023-03-01T20:36:38.589Z,9.33
2023-03-01T20:39:07.364Z,9.27
2023-03-01T20:41:35.381Z,9.29
2023-03-01T20:44:06.475Z,9.28
2023-03-01T20:46:35.758Z,9.25
2023-03-01T20:49:05.096Z,9.22
2023-03-01T20:51:33.039Z,9.23
2023-03-01T20:54:00.824Z,9.21
2023-03-01T20:56:28.902Z,9.17
2023-03-01T20:59:09.397Z,9.14
2023-03-01T21:01:56.271Z,9.07
2023-03-01T21:04:24.222Z,9.00
2023-03-01T21:06:52.318Z,9.03
2023-03-01T21:09:20.406Z,9.04
2023-03-01T21:11:50.865Z,9.03
2023-03-01T21:14:19.017Z,8.99
2023-03-01T21:16:46.918Z,8.99
2023-03-01T21:19:16.222Z,8.98
2023-03-01T21:21:44.589Z,8.98
2023-03-01T21:24:12.488Z,8.99
2023-03-01T21:26:40.330Z,8.97
2023-03-01T21:29:08.213Z,8.92
2023-03-01T21:31:36.254Z,8.94
2023-03-01T21:34:06.662Z,8.93
2023-03-01T21:36:35.935Z,8.92
2023-03-01T21:39:06.691Z,8.91
2023-03-01T21:41:37.805Z,8.92
2023-03-01T21:44:07.212Z,8.87
2023-03-01T21:46:39.251Z,8.89
2023-03-01T21:49:08.819Z,8.84
2023-03-01T21:51:36.863Z,8.81
2023-03-01T21:54:05.663Z,8.81
2023-03-01T21:56:38.617Z,8.80
2023-03-01T21:59:11.004Z,8.83
2023-03-01T22:01:39.006Z,8.84
2023-03-01T22:04:07.049Z,8.85
2023-03-01T22:06:40.424Z,8.86
2023-03-01T22:09:08.803Z,8.86
2023-03-01T22:11:41.725Z,8.88
2023-03-01T22:14:13.559Z,8.85
2023-03-01T22:16:45.387Z,8.86
2023-03-01T22:19:16.213Z,8.85
2023-03-01T22:21:49.590Z,8.81
2023-03-01T22:24:20.788Z,8.81
2023-03-01T22:26:50.398Z,8.81
2023-03-01T22:29:29.523Z,8.87
2023-03-01T22:31:58.841Z,8.85
2023-03-01T22:34:27.586Z,8.88
2023-03-01T22:36:56.420Z,8.85
2023-03-01T22:39:24.564Z,8.83
2023-03-01T22:41:54.942Z,8.85
2023-03-01T22:44:23.832Z,8.85
2023-03-01T22:46:52.349Z,8.81
2023-03-01T22:49:20.957Z,8.81
2023-03-01T22:51:49.137Z,8.76
2023-03-01T22:54:19.468Z,8.71
2023-03-01T22:56:47.700Z,8.64
2023-03-01T22:59:23.018Z,8.61
2023-03-01T23:01:52.795Z,8.59
2023-03-01T23:04:22.310Z,8.56
2023-03-01T23:06:50.322Z,8.50
2023-03-01T23:09:27.510Z,8.50
2023-03-01T23:11:55.838Z,8.44
2023-03-01T23:14:25.280Z,8.43
2023-03-01T23:16:54.105Z,8.43
2023-03-01T23:19:22.704Z,8.41
2023-03-01T23:21:50.713Z,8.37
2023-03-01T23:24:21.376Z,8.37
2023-03-01T23:26:53.423Z,8.35
2023-03-01T23:29:22.286Z,8.37
2023-03-01T23:31:50.248Z,8.37
2023-03-01T23:34:19.182Z,8.32
2023-03-01T23:36:47.191Z,8.31
2023-03-01T23:39:15.171Z,8.29
2023-03-01T23:41:44.194Z,8.24
2023-03-01T23:44:17.018Z,8.23
2023-03-01T23:46:47.516Z,8.16
2023-03-01T23:49:20.387Z,8.12
2023-03-01T23:51:48.960Z,8.09
2023-03-01T23:54:20.935Z,8.04
2023-03-01T23:56:48.880Z,7.96
2023-03-01T23:59:21.758Z,8.02
